createdAt,value
2022-12-25T00:00:35.271Z,6.57
2022-12-25T00:03:01.869Z,5.90
2022-12-25T00:05:28.379Z,6.40
2022-12-25T00:07:54.838Z,6.63
2022-12-25T00:10:21.222Z,5.90
2022-12-25T00:12:47.719Z,6.15
2022-12-25T00:15:14.227Z,6.75
2022-12-25T00:17:40.833Z,6.45
2022-12-25T00:20:10.991Z,5.77
2022-12-25T00:22:37.466Z,5.85
2022-12-25T00:25:04.361Z,6.30
2022-12-25T00:27:34.385Z,5.78
2022-12-25T00:30:01.050Z,5.57
2022-12-25T00:32:27.658Z,6.50
2022-12-25T00:34:54.161Z,5.72
2022-12-25T00:37:20.544Z,6.03
2022-12-25T00:39:48.969Z,7.22
2022-12-25T00:42:21.367Z,5.97
2022-12-25T00:44:48.923Z,6.17
2022-12-25T00:47:16.430Z,6.63
2022-12-25T00:49:45.478Z,5.93
2022-12-25T00:52:12.055Z,5.70
2022-12-25T00:54:38.685Z,5.72
2022-12-25T00:57:05.165Z,5.50
2022-12-25T00:59:33.413Z,5.43
2022-12-25T01:02:19.983Z,6.57
2022-12-25T01:04:46.565Z,5.82
2022-12-25T01:07:13.248Z,5.07
2022-12-25T01:09:58.692Z,5.60
2022-12-25T01:12:25.239Z,5.80
2022-12-25T01:14:51.733Z,6.13
2022-12-25T01:17:18.652Z,6.45
2022-12-25T01:19:45.141Z,5.40
2022-12-25T01:22:11.637Z,5.33
2022-12-25T01:24:38.087Z,5.65
2022-12-25T01:27:04.615Z,5.45
2022-12-25T01:29:30.995Z,5.55
2022-12-25T01:31:57.441Z,5.13
2022-12-25T01:34:23.907Z,5.40
2022-12-25T01:36:50.382Z,5.18
2022-12-25T01:39:16.821Z,5.93
2022-12-25T01:41:44.582Z,5.28
2022-12-25T01:44:13.778Z,5.28
2022-12-25T01:46:40.717Z,4.93
2022-12-25T01:49:14.623Z,5.30
2022-12-25T01:51:44.981Z,5.22
2022-12-25T01:54:25.739Z,5.75
2022-12-25T01:56:56.557Z,5.40
2022-12-25T01:59:26.077Z,5.43
2022-12-25T02:01:53.253Z,6.38
2022-12-25T02:04:38.735Z,5.13
2022-12-25T02:07:13.031Z,5.47
2022-12-25T02:09:39.553Z,5.35
2022-12-25T02:12:07.884Z,5.00
2022-12-25T02:14:37.347Z,4.90
2022-12-25T02:17:23.871Z,5.03
2022-12-25T02:20:02.306Z,5.47
2022-12-25T02:22:48.910Z,5.20
2022-12-25T02:25:24.367Z,5.63
2022-12-25T02:28:01.162Z,5.38
2022-12-25T02:30:32.808Z,5.60
2022-12-25T02:33:21.464Z,5.20
2022-12-25T02:35:52.844Z,5.07
2022-12-25T02:38:31.798Z,6.00
2022-12-25T02:41:03.411Z,5.82
2022-12-25T02:43:54.332Z,5.18
2022-12-25T02:46:42.361Z,5.45
2022-12-25T02:49:32.403Z,4.95
2022-12-25T02:52:45.128Z,5.83
2022-12-25T02:55:35.374Z,5.07
2022-12-25T02:58:25.545Z,5.25
2022-12-25T03:01:24.047Z,6.40
2022-12-25T03:04:12.281Z,6.15
2022-12-25T03:06:44.470Z,6.27
2022-12-25T03:09:35.826Z,5.45
2022-12-25T03:12:30.549Z,5.97
2022-12-25T03:15:15.446Z,5.78
2022-12-25T03:17:42.649Z,5.05
2022-12-25T03:20:28.396Z,6.57
2022-12-25T03:23:14.573Z,6.18
2022-12-25T03:25:59.540Z,5.22
2022-12-25T03:28:26.145Z,5.88
2022-12-25T03:31:31.181Z,5.32
2022-12-25T03:34:25.679Z,5.57
2022-12-25T03:37:22.346Z,4.97
2022-12-25T03:40:35.167Z,5.43
2022-12-25T03:44:02.239Z,4.95
2022-12-25T03:46:53.684Z,5.38
2022-12-25T03:50:22.168Z,5.30
2022-12-25T03:53:10.099Z,5.03
2022-12-25T03:55:55.826Z,5.03
2022-12-25T03:58:43.132Z,5.00
2022-12-25T04:01:28.354Z,5.70
2022-12-25T04:04:13.627Z,5.17
2022-12-25T04:06:58.894Z,5.07
2022-12-25T04:09:43.778Z,5.20
2022-12-25T04:12:29.208Z,5.18
2022-12-25T04:15:13.765Z,5.07
2022-12-25T04:17:59.093Z,4.93
2022-12-25T04:20:43.963Z,5.30
2022-12-25T04:23:29.292Z,5.03
2022-12-25T04:26:16.570Z,5.45
2022-12-25T04:29:01.949Z,4.57
2022-12-25T04:31:46.816Z,5.30
2022-12-25T04:34:31.500Z,5.15
2022-12-25T04:36:57.892Z,4.80
2022-12-25T04:39:24.261Z,5.30
2022-12-25T04:41:50.650Z,4.97
2022-12-25T04:44:17.285Z,4.83
2022-12-25T04:46:44.005Z,4.85
2022-12-25T04:49:10.526Z,4.47
2022-12-25T04:51:37.260Z,4.53
2022-12-25T04:54:03.725Z,4.30
2022-12-25T04:56:30.249Z,5.17
2022-12-25T04:58:56.739Z,4.30
2022-12-25T05:01:23.269Z,5.03
2022-12-25T05:03:49.984Z,4.40
2022-12-25T05:06:16.580Z,3.97
2022-12-25T05:08:43.136Z,4.20
2022-12-25T05:11:12.405Z,4.05
2022-12-25T05:13:39.027Z,4.20
2022-12-25T05:16:12.598Z,3.80
2022-12-25T05:18:39.119Z,3.92
2022-12-25T05:21:06.287Z,4.67
2022-12-25T05:23:32.693Z,4.03
2022-12-25T05:25:59.845Z,3.70
2022-12-25T05:28:26.266Z,4.00
2022-12-25T05:30:57.161Z,4.15
2022-12-25T05:33:23.638Z,3.60
2022-12-25T05:35:50.084Z,3.90
2022-12-25T05:38:16.451Z,4.47
2022-12-25T05:40:42.868Z,4.10
2022-12-25T05:43:09.446Z,3.92
2022-12-25T05:45:36.302Z,4.00
2022-12-25T05:48:02.947Z,3.92
2022-12-25T05:50:29.392Z,3.85
2022-12-25T05:52:55.844Z,4.30
2022-12-25T05:55:22.322Z,3.33
2022-12-25T05:57:48.775Z,5.33
2022-12-25T06:00:15.404Z,5.05
2022-12-25T06:02:42.083Z,4.97
2022-12-25T06:05:09.998Z,5.32
2022-12-25T06:07:36.430Z,4.05
2022-12-25T06:10:02.896Z,3.43
2022-12-25T06:12:29.326Z,3.80
2022-12-25T06:14:55.824Z,3.53
2022-12-25T06:17:25.744Z,3.47
2022-12-25T06:19:53.092Z,4.10
2022-12-25T06:22:20.068Z,3.80
2022-12-25T06:24:46.681Z,3.22
2022-12-25T06:27:13.105Z,3.30
2022-12-25T06:29:39.630Z,3.47
2022-12-25T06:32:06.116Z,3.58
2022-12-25T06:34:32.673Z,2.87
2022-12-25T06:36:59.152Z,2.78
2022-12-25T06:39:25.621Z,2.90
2022-12-25T06:41:52.058Z,3.47
2022-12-25T06:44:18.853Z,3.58
2022-12-25T06:46:45.291Z,3.47
2022-12-25T06:49:11.861Z,2.85
2022-12-25T06:51:38.671Z,3.10
2022-12-25T06:54:06.049Z,3.13
2022-12-25T06:56:33.801Z,3.38
2022-12-25T06:59:03.144Z,2.50
2022-12-25T07:01:33.588Z,3.22
2022-12-25T07:04:03.014Z,2.53
2022-12-25T07:06:29.500Z,3.03
2022-12-25T07:08:56.000Z,2.92
2022-12-25T07:11:22.991Z,3.30
2022-12-25T07:13:49.503Z,2.55
2022-12-25T07:16:16.515Z,2.45
2022-12-25T07:18:43.401Z,3.00
2022-12-25T07:21:19.640Z,2.42
2022-12-25T07:23:49.730Z,2.50
2022-12-25T07:26:17.647Z,2.42
2022-12-25T07:28:47.305Z,2.60
2022-12-25T07:31:15.769Z,2.40
2022-12-25T07:33:42.930Z,2.65
2022-12-25T07:36:12.617Z,3.03
2022-12-25T07:38:41.214Z,2.60
2022-12-25T07:41:09.646Z,2.72
2022-12-25T07:43:36.203Z,2.60
2022-12-25T07:46:02.774Z,2.47
2022-12-25T07:48:29.597Z,2.63
2022-12-25T07:51:00.984Z,2.67
2022-12-25T07:53:27.957Z,2.53
2022-12-25T07:56:03.715Z,2.63
2022-12-25T07:58:30.923Z,2.67
2022-12-25T08:01:04.918Z,2.17
2022-12-25T08:03:33.372Z,2.42
2022-12-25T08:06:01.719Z,2.22
2022-12-25T08:08:28.549Z,2.08
2022-12-25T08:10:54.983Z,2.50
2022-12-25T08:13:21.667Z,2.20
2022-12-25T08:15:48.097Z,2.45
2022-12-25T08:18:14.578Z,2.55
2022-12-25T08:20:41.170Z,2.65
2022-12-25T08:23:07.732Z,2.50
2022-12-25T08:25:34.226Z,2.13
2022-12-25T08:28:01.566Z,2.50
2022-12-25T08:30:28.593Z,2.17
2022-12-25T08:32:55.704Z,2.42
2022-12-25T08:35:22.276Z,2.67
2022-12-25T08:37:48.752Z,2.57
2022-12-25T08:40:15.314Z,2.00
2022-12-25T08:42:41.804Z,2.15
2022-12-25T08:45:08.944Z,2.47
2022-12-25T08:47:35.388Z,2.00
2022-12-25T08:50:01.832Z,2.20
2022-12-25T08:52:29.540Z,1.92
2022-12-25T08:54:56.292Z,2.47
2022-12-25T08:57:22.753Z,2.58
2022-12-25T08:59:49.201Z,2.33
2022-12-25T09:02:17.678Z,2.23
2022-12-25T09:04:47.406Z,2.30
2022-12-25T09:07:13.893Z,2.50
2022-12-25T09:09:40.378Z,2.10
2022-12-25T09:12:06.955Z,2.42
2022-12-25T09:14:33.408Z,2.40
2022-12-25T09:16:59.893Z,2.08
2022-12-25T09:19:26.376Z,1.92
2022-12-25T09:21:52.804Z,2.28
2022-12-25T09:24:20.614Z,2.05
2022-12-25T09:26:47.151Z,1.83
2022-12-25T09:29:14.739Z,2.00
2022-12-25T09:31:42.429Z,1.95
2022-12-25T09:34:11.475Z,1.70
2022-12-25T09:36:41.908Z,2.33
2022-12-25T09:39:11.320Z,2.80
2022-12-25T09:41:44.042Z,2.22
2022-12-25T09:44:15.738Z,2.60
2022-12-25T09:46:47.263Z,2.42
2022-12-25T09:49:21.838Z,2.35
2022-12-25T09:51:53.585Z,2.50
2022-12-25T09:54:25.740Z,2.55
2022-12-25T09:56:52.273Z,2.53
2022-12-25T09:59:27.215Z,2.80
2022-12-25T10:02:34.986Z,2.53
2022-12-25T10:05:04.265Z,3.07
2022-12-25T10:07:42.753Z,2.40
2022-12-25T10:10:38.329Z,2.70
2022-12-25T10:13:25.930Z,2.67
2022-12-25T10:16:05.310Z,2.95
2022-12-25T10:18:53.636Z,2.97
2022-12-25T10:21:22.301Z,3.25
2022-12-25T10:24:03.707Z,3.28
2022-12-25T10:26:32.762Z,3.22
2022-12-25T10:29:05.297Z,2.65
2022-12-25T10:31:35.755Z,2.67
2022-12-25T10:34:03.550Z,3.08
2022-12-25T10:36:31.391Z,2.75
2022-12-25T10:38:58.167Z,2.88
2022-12-25T10:41:49.045Z,2.85
2022-12-25T10:44:21.521Z,3.13
2022-12-25T10:46:50.274Z,3.20
2022-12-25T10:49:20.727Z,2.53
2022-12-25T10:51:47.588Z,3.00
2022-12-25T10:54:25.059Z,3.20
2022-12-25T10:57:09.801Z,3.20
2022-12-25T10:59:43.576Z,3.28
2022-12-25T11:02:22.234Z,3.40
2022-12-25T11:04:49.135Z,2.88
2022-12-25T11:07:25.022Z,4.75
2022-12-25T11:10:04.733Z,2.83
2022-12-25T11:12:42.459Z,2.88
2022-12-25T11:15:30.774Z,3.40
2022-12-25T11:17:57.434Z,2.85
2022-12-25T11:20:24.419Z,2.78
2022-12-25T11:22:51.476Z,2.50
2022-12-25T11:25:24.087Z,3.30
2022-12-25T11:28:05.703Z,4.18
2022-12-25T11:30:33.706Z,2.95
2022-12-25T11:33:07.845Z,4.30
2022-12-25T11:35:46.049Z,10.73
2022-12-25T11:38:12.645Z,4.93
2022-12-25T11:40:52.025Z,4.38
2022-12-25T11:43:44.100Z,4.97
2022-12-25T11:46:18.654Z,4.00
2022-12-25T11:48:49.967Z,3.57
2022-12-25T11:51:17.655Z,3.92
2022-12-25T11:53:50.918Z,2.67
2022-12-25T11:56:24.007Z,3.08
2022-12-25T11:58:53.704Z,2.95
2022-12-25T12:01:47.183Z,3.03
2022-12-25T12:04:42.756Z,2.13
2022-12-25T12:07:24.357Z,2.95
2022-12-25T12:10:14.584Z,3.10
2022-12-25T12:12:57.443Z,2.83
2022-12-25T12:15:41.597Z,3.03
2022-12-25T12:18:28.344Z,2.88
2022-12-25T12:21:08.512Z,3.00
2022-12-25T12:23:47.875Z,2.95
2022-12-25T12:26:25.907Z,3.35
2022-12-25T12:28:55.505Z,3.23
2022-12-25T12:31:22.524Z,4.20
2022-12-25T12:33:54.432Z,3.28
2022-12-25T12:36:35.705Z,3.22
2022-12-25T12:39:05.041Z,3.45
2022-12-25T12:41:48.699Z,3.97
2022-12-25T12:44:17.629Z,3.92
2022-12-25T12:46:56.043Z,3.75
2022-12-25T12:49:26.967Z,4.22
2022-12-25T12:52:30.818Z,4.25
2022-12-25T12:55:00.611Z,3.30
2022-12-25T12:57:29.694Z,3.95
2022-12-25T12:59:59.952Z,4.10
2022-12-25T13:03:02.841Z,4.13
2022-12-25T13:05:54.549Z,4.18
2022-12-25T13:08:33.258Z,3.63
2022-12-25T13:11:11.348Z,4.75
2022-12-25T13:13:41.876Z,4.32
2022-12-25T13:16:26.447Z,5.13
2022-12-25T13:18:55.009Z,4.15
2022-12-25T13:21:28.942Z,4.20
2022-12-25T13:24:02.584Z,4.15
2022-12-25T13:26:30.082Z,4.57
2022-12-25T13:28:56.911Z,4.03
2022-12-25T13:31:26.464Z,3.95
2022-12-25T13:34:05.111Z,3.97
2022-12-25T13:36:40.274Z,4.13
2022-12-25T13:39:16.615Z,4.03
2022-12-25T13:42:06.467Z,4.30
2022-12-25T13:44:46.845Z,4.25
2022-12-25T13:47:21.291Z,5.33
2022-12-25T13:49:49.540Z,4.47
2022-12-25T13:52:22.818Z,4.68
2022-12-25T13:55:04.552Z,4.55
2022-12-25T13:57:37.487Z,3.78
2022-12-25T14:00:06.736Z,3.93
2022-12-25T14:02:37.187Z,4.45
2022-12-25T14:05:22.158Z,4.80
2022-12-25T14:07:53.493Z,4.57
2022-12-25T14:10:25.702Z,4.72
2022-12-25T14:12:54.376Z,4.20
2022-12-25T14:15:28.299Z,4.35
2022-12-25T14:17:54.860Z,3.47
2022-12-25T14:20:45.824Z,4.20
2022-12-25T14:23:16.187Z,4.25
2022-12-25T14:25:47.058Z,4.73
2022-12-25T14:28:34.153Z,4.70
2022-12-25T14:31:02.716Z,5.07
2022-12-25T14:33:38.914Z,4.70
2022-12-25T14:36:06.953Z,4.90
2022-12-25T14:38:36.875Z,5.20
2022-12-25T14:41:34.460Z,5.22
2022-12-25T14:44:04.328Z,4.57
2022-12-25T14:46:32.460Z,4.82
2022-12-25T14:49:01.683Z,5.43
2022-12-25T14:51:30.280Z,5.50
2022-12-25T14:53:59.193Z,4.90
2022-12-25T14:56:27.832Z,4.95
2022-12-25T14:58:56.894Z,5.32
2022-12-25T15:01:31.695Z,5.43
2022-12-25T15:04:04.761Z,5.20
2022-12-25T15:06:32.921Z,5.15
2022-12-25T15:09:02.168Z,5.10
2022-12-25T15:11:29.252Z,5.45
2022-12-25T15:13:56.124Z,5.90
2022-12-25T15:16:26.068Z,5.93
2022-12-25T15:18:53.966Z,5.53
2022-12-25T15:21:27.266Z,5.63
2022-12-25T15:23:55.985Z,5.57
2022-12-25T15:26:23.389Z,6.28
2022-12-25T15:28:50.164Z,5.40
2022-12-25T15:31:25.007Z,5.90
2022-12-25T15:33:56.423Z,5.63
2022-12-25T15:36:23.923Z,5.47
2022-12-25T15:38:51.316Z,5.07
2022-12-25T15:41:40.833Z,5.30
2022-12-25T15:44:07.609Z,5.00
2022-12-25T15:46:34.770Z,5.50
2022-12-25T15:49:01.318Z,5.07
2022-12-25T15:51:27.824Z,5.68
2022-12-25T15:53:54.371Z,5.53
2022-12-25T15:56:22.251Z,5.30
2022-12-25T15:58:48.722Z,4.75
2022-12-25T16:01:18.879Z,5.25
2022-12-25T16:03:46.241Z,5.10
2022-12-25T16:06:15.211Z,9.67
2022-12-25T16:08:42.330Z,9.95
2022-12-25T16:11:09.566Z,8.88
2022-12-25T16:13:36.521Z,8.70
2022-12-25T16:16:04.172Z,8.13
2022-12-25T16:18:30.831Z,8.77
2022-12-25T16:20:59.134Z,8.05
2022-12-25T16:23:25.617Z,7.00
2022-12-25T16:25:52.003Z,5.63
2022-12-25T16:28:21.371Z,5.97
2022-12-25T16:30:48.127Z,5.53
2022-12-25T16:33:15.295Z,5.28
2022-12-25T16:35:41.799Z,5.00
2022-12-25T16:38:08.368Z,4.97
2022-12-25T16:40:35.047Z,5.32
2022-12-25T16:43:01.525Z,5.20
2022-12-25T16:45:28.248Z,5.82
2022-12-25T16:47:56.537Z,9.40
2022-12-25T16:50:23.381Z,12.77
2022-12-25T16:52:49.772Z,8.73
2022-12-25T16:55:16.235Z,11.17
2022-12-25T16:57:42.720Z,8.93
2022-12-25T17:00:09.874Z,8.90
2022-12-25T17:02:36.450Z,8.75
2022-12-25T17:05:03.140Z,9.20
2022-12-25T17:07:29.575Z,8.70
2022-12-25T17:09:57.133Z,6.80
2022-12-25T17:12:23.632Z,6.70
2022-12-25T17:14:50.131Z,7.38
2022-12-25T17:17:16.518Z,8.40
2022-12-25T17:19:42.901Z,8.27
2022-12-25T17:22:09.448Z,8.88
2022-12-25T17:24:37.286Z,8.57
2022-12-25T17:27:04.225Z,8.30
2022-12-25T17:29:31.942Z,9.45
2022-12-25T17:31:58.424Z,9.97
2022-12-25T17:34:25.150Z,8.85
2022-12-25T17:36:53.668Z,8.43
2022-12-25T17:39:20.169Z,7.07
2022-12-25T17:41:49.337Z,8.32
2022-12-25T17:44:15.922Z,6.70
2022-12-25T17:46:43.055Z,7.65
2022-12-25T17:49:14.304Z,7.47
2022-12-25T17:51:40.898Z,9.73
2022-12-25T17:54:08.391Z,9.50
2022-12-25T17:56:35.391Z,8.27
2022-12-25T17:59:06.656Z,8.75
2022-12-25T18:01:37.606Z,9.95
2022-12-25T18:04:06.124Z,9.90
2022-12-25T18:06:35.089Z,9.63
2022-12-25T18:09:01.826Z,10.33
2022-12-25T18:11:32.801Z,9.93
2022-12-25T18:14:02.915Z,11.32
2022-12-25T18:16:32.499Z,11.07
2022-12-25T18:18:59.668Z,9.73
2022-12-25T18:21:26.976Z,10.10
2022-12-25T18:23:53.546Z,9.75
2022-12-25T18:26:20.556Z,9.00
2022-12-25T18:28:48.611Z,8.50
2022-12-25T18:31:18.712Z,9.15
2022-12-25T18:33:45.299Z,9.20
2022-12-25T18:36:17.748Z,8.82
2022-12-25T18:38:47.083Z,10.45
2022-12-25T18:41:13.650Z,10.43
2022-12-25T18:43:53.122Z,9.35
2022-12-25T18:46:24.264Z,8.93
2022-12-25T18:48:51.462Z,9.52
2022-12-25T18:51:18.447Z,9.38
2022-12-25T18:53:45.161Z,9.82
2022-12-25T18:56:15.614Z,9.57
2022-12-25T18:58:42.876Z,8.87
2022-12-25T19:01:16.001Z,9.40
2022-12-25T19:03:43.995Z,10.85
2022-12-25T19:06:20.516Z,10.75
2022-12-25T19:08:47.007Z,10.73
2022-12-25T19:11:13.581Z,9.90
2022-12-25T19:13:40.249Z,10.70
2022-12-25T19:16:06.991Z,10.60
2022-12-25T19:18:33.478Z,10.43
2022-12-25T19:21:05.079Z,11.25
2022-12-25T19:23:31.600Z,12.77
2022-12-25T19:25:58.123Z,11.95
2022-12-25T19:28:25.177Z,15.95
2022-12-25T19:30:54.961Z,13.25
2022-12-25T19:33:22.192Z,12.68
2022-12-25T19:35:49.863Z,13.43
2022-12-25T19:38:16.361Z,11.48
2022-12-25T19:41:00.113Z,13.68
2022-12-25T19:43:27.976Z,13.05
2022-12-25T19:45:54.559Z,11.98
2022-12-25T19:48:21.008Z,12.23
2022-12-25T19:50:47.578Z,12.13
2022-12-25T19:53:16.723Z,14.23
2022-12-25T19:55:44.352Z,13.50
2022-12-25T19:58:11.599Z,13.90
2022-12-25T20:00:40.351Z,13.43
2022-12-25T20:03:07.079Z,12.57
2022-12-25T20:05:33.547Z,13.02
2022-12-25T20:08:00.048Z,12.48
2022-12-25T20:10:26.471Z,15.20
2022-12-25T20:12:53.289Z,13.27
2022-12-25T20:15:20.176Z,10.95
2022-12-25T20:17:47.450Z,10.95
2022-12-25T20:20:14.217Z,10.00
2022-12-25T20:22:40.604Z,10.18
2022-12-25T20:25:09.184Z,9.43
2022-12-25T20:27:35.635Z,9.75
2022-12-25T20:30:02.218Z,8.80
2022-12-25T20:32:29.549Z,9.23
2022-12-25T20:34:56.055Z,10.00
2022-12-25T20:37:22.485Z,9.37
2022-12-25T20:39:48.874Z,9.20
2022-12-25T20:42:15.361Z,9.05
2022-12-25T20:44:41.842Z,9.27
2022-12-25T20:47:10.636Z,9.68
2022-12-25T20:49:37.012Z,10.03
2022-12-25T20:52:05.851Z,9.18
2022-12-25T20:54:33.146Z,9.18
2022-12-25T20:56:59.683Z,9.57
2022-12-25T20:59:26.095Z,8.02
2022-12-25T21:01:54.334Z,8.40
2022-12-25T21:04:20.897Z,8.20
2022-12-25T21:06:47.411Z,8.05
2022-12-25T21:09:13.897Z,7.88
2022-12-25T21:11:40.354Z,8.35
2022-12-25T21:14:06.970Z,7.63
2022-12-25T21:16:33.484Z,8.02
2022-12-25T21:18:59.989Z,7.53
2022-12-25T21:21:26.785Z,8.55
2022-12-25T21:23:56.894Z,7.88
2022-12-25T21:26:26.442Z,8.23
2022-12-25T21:28:55.646Z,8.25
2022-12-25T21:31:22.306Z,7.93
2022-12-25T21:33:51.916Z,9.18
2022-12-25T21:36:21.232Z,8.70
2022-12-25T21:38:52.527Z,9.17
2022-12-25T21:41:19.066Z,8.98
2022-12-25T21:43:46.067Z,9.60
2022-12-25T21:46:14.447Z,8.98
2022-12-25T21:48:41.940Z,9.15
2022-12-25T21:51:34.835Z,8.73
2022-12-25T21:54:02.359Z,8.65
2022-12-25T21:56:37.097Z,8.80
2022-12-25T21:59:07.993Z,9.30
2022-12-25T22:01:36.706Z,9.00
2022-12-25T22:04:08.743Z,9.97
2022-12-25T22:06:54.643Z,8.25
2022-12-25T22:09:21.912Z,10.05
2022-12-25T22:12:07.694Z,8.50
2022-12-25T22:14:57.096Z,8.63
2022-12-25T22:17:47.852Z,7.63
2022-12-25T22:20:22.267Z,7.00
2022-12-25T22:22:49.233Z,7.70
2022-12-25T22:25:16.052Z,7.88
2022-12-25T22:27:43.961Z,7.20
2022-12-25T22:30:19.106Z,6.67
2022-12-25T22:32:46.359Z,6.60
2022-12-25T22:35:13.825Z,7.03
2022-12-25T22:37:41.672Z,6.43
2022-12-25T22:40:10.056Z,6.65
2022-12-25T22:42:37.084Z,6.20
2022-12-25T22:45:04.184Z,6.03
2022-12-25T22:47:30.686Z,6.10
2022-12-25T22:49:57.245Z,6.15
2022-12-25T22:52:23.769Z,6.15
2022-12-25T22:54:50.301Z,7.07
2022-12-25T22:57:16.758Z,5.80
2022-12-25T22:59:43.372Z,5.90
2022-12-25T23:02:10.039Z,6.35
2022-12-25T23:04:36.759Z,5.53
2022-12-25T23:07:03.918Z,6.07
2022-12-25T23:09:30.715Z,6.03
2022-12-25T23:11:58.669Z,5.50
2022-12-25T23:14:41.656Z,6.55
2022-12-25T23:17:31.695Z,6.22
2022-12-25T23:20:18.722Z,6.50
2022-12-25T23:23:05.232Z,6.57
2022-12-25T23:25:50.605Z,5.90
2022-12-25T23:28:39.631Z,6.07
2022-12-25T23:31:07.081Z,5.28
2022-12-25T23:33:33.716Z,5.83
2022-12-25T23:36:00.278Z,5.82
2022-12-25T23:38:26.803Z,6.15
2022-12-25T23:40:53.255Z,5.80
2022-12-25T23:43:19.698Z,5.93
2022-12-25T23:45:46.192Z,5.97
2022-12-25T23:48:12.707Z,6.50
2022-12-25T23:50:39.135Z,5.55
2022-12-25T23:53:05.634Z,6.22
2022-12-25T23:55:33.490Z,6.18
2022-12-25T23:57:59.945Z,6.70
